Time;durP1;ratioP1;P1;durP2;ratioP2;P2;SDS_P1;SDS_P2;PMS_P1;PMS_P2;Temp;Humidity;BMP_temperature;BMP_pressure;BME280_temperature;BME280_humidity;BME280_pressure;Samples;Min_cycle;Max_cycle;Signal;HPM_P1;HPM_P2
2020/12/11 00:02:15;;;;;;;1999.90;999.90;;;1.40;99.90;;;;;;5093042;28;20131;-89
2020/12/11 00:04:43;;;;;;;1999.90;999.90;;;1.50;99.90;;;;;;5093027;28;20486;-90
2020/12/11 00:07:09;;;;;;;1999.90;999.90;;;1.50;99.90;;;;;;5093404;28;20048;-89
2020/12/11 00:09:36;;;;;;;1999.90;999.90;;;1.50;99.90;;;;;;5092733;28;20144;-89
2020/12/11 00:12:04;;;;;;;1999.90;999.90;;;1.50;99.90;;;;;;5096701;28;20050;-89
2020/12/11 00:14:31;;;;;;;1999.90;999.90;;;1.40;99.90;;;;;;5097783;28;20491;-89
2020/12/11 00:16:58;;;;;;;1999.90;999.90;;;1.40;99.90;;;;;;5097216;28;20051;-89
2020/12/11 00:19:25;;;;;;;1999.90;999.90;;;1.40;99.90;;;;;;5097441;28;20412;-89
2020/12/11 00:21:54;;;;;;;1999.90;999.90;;;1.40;99.90;;;;;;5096899;28;20815;-89
2020/12/11 00:24:21;;;;;;;1999.90;999.90;;;1.40;99.90;;;;;;5097045;28;20122;-90
2020/12/11 00:26:48;;;;;;;1999.90;999.90;;;1.40;99.90;;;;;;5097619;28;20586;-89
2020/12/11 00:29:15;;;;;;;1999.90;999.90;;;1.40;99.90;;;;;;5099018;28;20079;-90
2020/12/11 00:31:42;;;;;;;1999.90;999.90;;;1.40;99.90;;;;;;5100650;28;20111;-89
2020/12/11 00:34:09;;;;;;;1999.90;999.90;;;1.40;99.90;;;;;;5099789;28;20054;-89
2020/12/11 00:36:36;;;;;;;1999.90;999.90;;;1.40;99.90;;;;;;5097338;28;20538;-89
2020/12/11 00:39:03;;;;;;;1999.90;999.90;;;1.30;99.90;;;;;;5096231;28;20770;-89
2020/12/11 00:41:30;;;;;;;1999.90;999.90;;;1.40;99.90;;;;;;5097060;28;20133;-89
2020/12/11 00:43:57;;;;;;;1999.90;999.90;;;1.40;99.90;;;;;;5096759;28;20056;-89
2020/12/11 00:46:25;;;;;;;1999.90;999.90;;;1.30;99.90;;;;;;5095228;28;20040;-89
2020/12/11 00:48:53;;;;;;;1999.90;999.90;;;1.30;99.90;;;;;;5095539;28;20482;-89
2020/12/11 00:51:20;;;;;;;1999.90;999.90;;;1.30;99.90;;;;;;5096592;28;20079;-89
2020/12/11 00:53:48;;;;;;;1999.90;999.90;;;1.30;99.90;;;;;;5089869;28;20049;-89
2020/12/11 00:56:15;;;;;;;1999.90;999.90;;;1.30;99.90;;;;;;5095924;28;20443;-89
2020/12/11 00:58:42;;;;;;;1999.90;999.90;;;1.30;99.90;;;;;;5096067;28;20511;-89
2020/12/11 01:01:09;;;;;;;1999.90;999.90;;;1.30;99.90;;;;;;5096377;28;20330;-88
2020/12/11 01:03:37;;;;;;;1999.90;999.90;;;1.30;99.90;;;;;;5096357;28;20534;-89
2020/12/11 01:06:04;;;;;;;1999.90;999.90;;;1.30;99.90;;;;;;5096426;28;20055;-89
2020/12/11 01:08:31;;;;;;;1999.90;999.90;;;1.30;99.90;;;;;;5096293;28;20112;-88
2020/12/11 01:10:58;;;;;;;1999.90;999.90;;;1.30;99.90;;;;;;5096916;28;20048;-88
2020/12/11 01:13:25;;;;;;;1999.90;999.90;;;1.30;99.90;;;;;;5095815;28;20494;-89
2020/12/11 01:15:52;;;;;;;1999.90;999.90;;;1.30;99.90;;;;;;5095242;28;20050;-89
2020/12/11 01:18:19;;;;;;;1999.90;999.90;;;1.20;99.90;;;;;;5096513;28;20052;-89
2020/12/11 01:20:47;;;;;;;1999.90;999.90;;;1.30;99.90;;;;;;5082255;28;20214;-89
2020/12/11 01:23:14;;;;;;;1999.90;999.90;;;1.30;99.90;;;;;;5095787;28;20080;-89
2020/12/11 01:25:41;;;;;;;1999.90;999.90;;;1.30;99.90;;;;;;5095387;28;20048;-89
2020/12/11 01:28:08;;;;;;;1999.90;999.90;;;1.30;99.90;;;;;;5095740;28;20048;-89
2020/12/11 01:30:35;;;;;;;1999.90;999.90;;;1.20;99.90;;;;;;5095165;28;20141;-89
2020/12/11 01:33:03;;;;;;;1999.90;999.90;;;1.30;99.90;;;;;;5089305;28;20084;-88
2020/12/11 01:35:30;;;;;;;1999.90;999.90;;;1.20;99.90;;;;;;5096015;28;20459;-88
2020/12/11 01:37:57;;;;;;;1999.90;999.90;;;1.20;99.90;;;;;;5095746;28;20072;-89
2020/12/11 01:40:24;;;;;;;1999.90;999.90;;;1.20;99.90;;;;;;5095975;28;20048;-89
2020/12/11 01:42:51;;;;;;;1999.90;999.90;;;1.20;99.90;;;;;;5095475;28;20048;-89
2020/12/11 01:45:19;;;;;;;1999.90;999.90;;;1.20;99.90;;;;;;5094933;28;20058;-89
2020/12/11 01:47:47;;;;;;;1999.90;999.90;;;1.20;99.90;;;;;;5095978;28;20052;-89
2020/12/11 01:50:19;;;;;;;1999.90;999.90;;;1.20;99.90;;;;;;5095177;28;20127;-89
2020/12/11 01:52:47;;;;;;;1999.90;999.90;;;1.20;99.90;;;;;;5096041;28;20067;-89
2020/12/11 01:55:15;;;;;;;1999.90;999.90;;;1.20;99.90;;;;;;5095339;28;20048;-89
2020/12/11 01:57:53;;;;;;;1999.90;999.90;;;1.20;99.90;;;;;;5091597;28;20143;-89
2020/12/11 02:00:21;;;;;;;1999.90;999.90;;;1.20;99.90;;;;;;5091541;28;20044;-89
2020/12/11 02:02:55;;;;;;;1999.90;999.90;;;1.20;99.90;;;;;;5094635;28;20047;-89
2020/12/11 02:05:22;;;;;;;1999.90;999.90;;;1.10;99.90;;;;;;5081278;28;20135;-89
2020/12/11 02:07:49;;;;;;;1999.90;999.90;;;1.10;99.90;;;;;;5095320;28;20401;-90
2020/12/11 02:10:17;;;;;;;1999.90;999.90;;;1.10;99.90;;;;;;5094927;28;20813;-89
2020/12/11 02:12:43;;;;;;;1999.90;999.90;;;1.10;99.90;;;;;;5096434;28;20076;-89
2020/12/11 02:15:10;;;;;;;1999.90;999.90;;;1.10;99.90;;;;;;5096105;28;20051;-90
2020/12/11 02:17:37;;;;;;;1999.90;999.90;;;1.10;99.90;;;;;;5096366;28;20078;-90
2020/12/11 02:20:05;;;;;;;1999.90;999.90;;;1.10;99.90;;;;;;5098271;28;20047;-90
2020/12/11 02:22:33;;;;;;;1999.90;999.90;;;1.10;99.90;;;;;;5103562;28;20052;-89
2020/12/11 02:25:00;;;;;;;1999.90;999.90;;;1.10;99.90;;;;;;5099947;28;20146;-90
2020/12/11 02:27:27;;;;;;;1999.90;999.90;;;1.00;99.90;;;;;;5094844;28;20477;-89
2020/12/11 02:29:54;;;;;;;1999.90;999.90;;;1.10;99.90;;;;;;5082833;28;20131;-90
2020/12/11 02:32:21;;;;;;;1999.90;999.90;;;1.00;99.90;;;;;;5094643;28;20040;-90
2020/12/11 02:34:49;;;;;;;1999.90;999.90;;;1.00;99.90;;;;;;5080354;28;20144;-90
2020/12/11 02:37:16;;;;;;;1999.90;999.90;;;1.00;99.90;;;;;;5087173;28;20493;-89
2020/12/11 02:39:43;;;;;;;1999.90;999.90;;;1.00;99.90;;;;;;5094707;28;20410;-89
2020/12/11 02:42:10;;;;;;;1999.90;999.90;;;1.00;99.90;;;;;;5089674;28;20489;-89
2020/12/11 02:44:37;;;;;;;1999.90;999.90;;;1.00;99.90;;;;;;5093628;28;20044;-89
2020/12/11 02:47:04;;;;;;;1999.90;999.90;;;0.90;99.90;;;;;;5094223;28;20192;-89
2020/12/11 02:49:31;;;;;;;1999.90;999.90;;;0.90;99.90;;;;;;5083810;28;20044;-88
2020/12/11 02:51:58;;;;;;;1999.90;999.90;;;0.90;99.90;;;;;;5094154;28;20054;-87
2020/12/11 02:54:25;;;;;;;1999.90;999.90;;;0.90;99.90;;;;;;5094359;28;20533;-87
2020/12/11 02:56:53;;;;;;;1999.90;999.90;;;0.90;99.90;;;;;;5094833;28;20079;-87
2020/12/11 02:59:20;;;;;;;1999.90;999.90;;;0.80;99.90;;;;;;5094120;28;20063;-87
2020/12/11 03:01:47;;;;;;;1999.90;999.90;;;0.80;99.90;;;;;;5092150;28;20044;-87
2020/12/11 03:04:14;;;;;;;1999.90;999.90;;;0.90;99.90;;;;;;5092146;28;20135;-87
2020/12/11 03:06:41;;;;;;;1999.90;999.90;;;0.80;99.90;;;;;;5094379;28;20048;-87
2020/12/11 03:09:08;;;;;;;1999.90;999.90;;;0.90;99.90;;;;;;5094298;28;20139;-87
2020/12/11 03:11:34;;;;;;;1999.90;999.90;;;0.90;99.90;;;;;;5094654;28;20533;-88
2020/12/11 03:14:02;;;;;;;1999.90;999.90;;;0.90;99.90;;;;;;5093900;28;20134;-87
2020/12/11 03:16:29;;;;;;;1999.90;999.90;;;0.80;99.90;;;;;;5091032;28;20148;-82
2020/12/11 03:18:56;;;;;;;1999.90;999.90;;;0.80;99.90;;;;;;5084160;28;20056;-82
2020/12/11 03:21:23;;;;;;;1999.90;999.90;;;0.80;99.90;;;;;;5092853;28;20478;-82
2020/12/11 03:23:51;;;;;;;1999.90;999.90;;;0.80;99.90;;;;;;5092019;28;20058;-82
2020/12/11 03:26:18;;;;;;;1999.90;999.90;;;0.80;99.90;;;;;;5093038;28;20054;-82
2020/12/11 03:28:45;;;;;;;1999.90;999.90;;;0.80;99.90;;;;;;5092642;28;20074;-83
2020/12/11 03:31:13;;;;;;;1999.90;999.90;;;0.70;99.90;;;;;;5091183;28;20501;-83
2020/12/11 03:33:40;;;;;;;1999.90;999.90;;;0.70;99.90;;;;;;5091425;28;20497;-82
2020/12/11 03:36:07;;;;;;;1999.90;999.90;;;0.70;99.90;;;;;;5092526;28;20131;-82
2020/12/11 03:38:34;;;;;;;1999.90;999.90;;;0.70;99.90;;;;;;5092636;28;20068;-82
2020/12/11 03:41:01;;;;;;;1999.90;999.90;;;0.70;99.90;;;;;;5093035;28;20237;-82
2020/12/11 03:43:28;;;;;;;1999.90;999.90;;;0.80;99.90;;;;;;5091950;28;20059;-82
2020/12/11 03:45:55;;;;;;;1999.90;999.90;;;0.70;99.90;;;;;;5091668;28;20092;-83
2020/12/11 03:48:23;;;;;;;1999.90;999.90;;;0.70;99.90;;;;;;5092105;28;20101;-83
2020/12/11 03:50:50;;;;;;;1999.90;999.90;;;0.70;99.90;;;;;;5092740;28;20482;-84
2020/12/11 03:53:17;;;;;;;1999.90;999.90;;;0.70;99.90;;;;;;5092519;28;20040;-84
2020/12/11 03:55:44;;;;;;;1999.90;999.90;;;0.70;99.90;;;;;;5092407;28;20143;-83
2020/12/11 03:58:11;;;;;;;1999.90;999.90;;;0.70;99.90;;;;;;5092398;28;20082;-84
2020/12/11 04:00:38;;;;;;;1999.90;999.90;;;0.70;99.90;;;;;;5091775;28;20040;-84
2020/12/11 04:03:05;;;;;;;1999.90;999.90;;;0.70;99.90;;;;;;5091542;28;20447;-84
2020/12/11 04:05:33;;;;;;;1999.90;999.90;;;0.70;99.90;;;;;;5091644;28;20490;-84
2020/12/11 04:07:59;;;;;;;1999.90;999.90;;;0.70;99.90;;;;;;5092630;28;20835;-83
2020/12/11 04:10:29;;;;;;;1999.90;999.90;;;0.70;99.90;;;;;;5091372;28;20143;-84
2020/12/11 04:12:57;;;;;;;1999.90;999.90;;;0.70;99.90;;;;;;5092228;28;20079;-84
2020/12/11 04:15:24;;;;;;;1999.90;999.90;;;0.70;99.90;;;;;;5091505;28;20075;-84
2020/12/11 04:17:51;;;;;;;1999.90;999.90;;;0.70;99.90;;;;;;5092040;28;20052;-84
2020/12/11 04:20:18;;;;;;;1999.90;999.90;;;0.70;99.90;;;;;;5092363;28;20078;-84
2020/12/11 04:22:46;;;;;;;1999.90;999.90;;;0.70;99.90;;;;;;5092260;28;20131;-84
2020/12/11 04:25:13;;;;;;;1999.90;999.90;;;0.70;99.90;;;;;;5091946;28;20089;-84
2020/12/11 04:27:40;;;;;;;1999.90;999.90;;;0.70;99.90;;;;;;5092526;28;20066;-84
2020/12/11 04:30:07;;;;;;;1999.90;999.90;;;0.70;99.90;;;;;;5091341;28;20356;-83
2020/12/11 04:32:33;;;;;;;1999.90;999.90;;;0.70;99.90;;;;;;5090930;28;20078;-82
2020/12/11 04:35:00;;;;;;;1999.90;999.90;;;0.70;99.90;;;;;;5092073;28;20048;-84
2020/12/11 04:37:27;;;;;;;1999.90;999.90;;;0.80;99.90;;;;;;5092376;28;20126;-84
2020/12/11 04:39:55;;;;;;;1999.90;999.90;;;0.80;99.90;;;;;;5091605;28;20071;-84
2020/12/11 04:42:23;;;;;;;1999.90;999.90;;;0.80;99.90;;;;;;5092427;28;20051;-84
2020/12/11 04:44:51;;;;;;;1999.90;999.90;;;0.80;99.90;;;;;;5091704;28;20059;-84
2020/12/11 04:47:21;;;;;;;1999.90;999.90;;;0.80;99.90;;;;;;5092019;28;20054;-84
2020/12/11 04:49:49;;;;;;;1999.90;999.90;;;0.80;99.90;;;;;;5091748;28;20056;-83
2020/12/11 04:52:20;;;;;;;1999.90;999.90;;;0.80;99.90;;;;;;5091566;28;20520;-84
2020/12/11 04:54:49;;;;;;;1999.90;999.90;;;0.80;99.90;;;;;;5091777;28;20062;-84
2020/12/11 04:57:26;;;;;;;1999.90;999.90;;;0.80;99.90;;;;;;5091933;28;20479;-84
2020/12/11 04:59:52;;;;;;;1999.90;999.90;;;0.80;99.90;;;;;;5093304;28;20051;-84
2020/12/11 05:02:19;;;;;;;1999.90;999.90;;;0.80;99.90;;;;;;5091229;28;20048;-84
2020/12/11 05:04:52;;;;;;;1999.90;999.90;;;0.80;99.90;;;;;;5095583;28;20057;-84
2020/12/11 05:07:18;;;;;;;1999.90;999.90;;;0.80;99.90;;;;;;5094499;28;20051;-84
2020/12/11 05:09:55;;;;;;;1999.90;999.90;;;0.80;99.90;;;;;;5095203;28;20138;-84
2020/12/11 05:12:23;;;;;;;1999.90;999.90;;;0.80;99.90;;;;;;5089871;28;20051;-84
2020/12/11 05:14:55;;;;;;;1999.90;999.90;;;0.80;99.90;;;;;;5088229;28;20056;-84
2020/12/11 05:17:26;;;;;;;1999.90;999.90;;;0.80;99.90;;;;;;5094866;28;20044;-84
2020/12/11 05:19:54;;;;;;;1999.90;999.90;;;0.80;99.90;;;;;;5095316;28;20138;-84
2020/12/11 05:22:24;;;;;;;1999.90;999.90;;;0.80;99.90;;;;;;5093768;28;20052;-84
2020/12/11 05:24:53;;;;;;;1999.90;999.90;;;0.80;99.90;;;;;;5095409;28;20522;-84
2020/12/11 05:27:35;;;;;;;1999.90;999.90;;;0.80;99.90;;;;;;5095615;28;20100;-84
2020/12/11 05:30:23;;;;;;;1999.90;999.90;;;0.90;99.90;;;;;;5089954;28;20104;-84
2020/12/11 05:32:53;;;;;;;1999.90;999.90;;;0.80;99.90;;;;;;5094780;28;20080;-84
2020/12/11 05:35:29;;;;;;;1999.90;999.90;;;0.80;99.90;;;;;;5095197;28;20044;-84
2020/12/11 05:37:58;;;;;;;1999.90;999.90;;;0.90;99.90;;;;;;5095761;28;20050;-83
2020/12/11 05:40:31;;;;;;;1999.90;999.90;;;0.80;99.90;;;;;;5096996;28;20075;-84
2020/12/11 05:43:08;;;;;;;1999.90;999.90;;;0.80;99.90;;;;;;5103594;28;20046;-84
2020/12/11 05:45:36;;;;;;;1999.90;999.90;;;0.80;99.90;;;;;;5099184;28;20083;-84
2020/12/11 05:48:04;;;;;;;1999.90;999.90;;;0.80;99.90;;;;;;5097324;28;20520;-84
2020/12/11 05:50:32;;;;;;;1999.90;999.90;;;0.80;99.90;;;;;;5095782;28;20132;-84
2020/12/11 05:52:59;;;;;;;1999.90;999.90;;;0.80;99.90;;;;;;5093805;28;20040;-83
2020/12/11 05:55:26;;;;;;;1999.90;999.90;;;0.80;99.90;;;;;;5094339;28;20404;-84
2020/12/11 05:57:54;;;;;;;1999.90;999.90;;;0.80;99.90;;;;;;5094780;28;20387;-83
2020/12/11 06:00:23;;;;;;;1999.90;999.90;;;0.80;99.90;;;;;;5094492;28;20055;-83
2020/12/11 06:02:51;;;;;;;1999.90;999.90;;;0.80;99.90;;;;;;5092916;28;20044;-84
2020/12/11 06:05:19;;;;;;;1999.90;999.90;;;0.80;99.90;;;;;;5094446;28;20058;-84
2020/12/11 06:07:48;;;;;;;1999.90;999.90;;;0.80;99.90;;;;;;5094676;28;20074;-84
2020/12/11 06:10:17;;;;;;;1999.90;999.90;;;0.90;99.90;;;;;;5091759;28;20414;-84
2020/12/11 06:12:44;;;;;;;1999.90;999.90;;;0.90;99.90;;;;;;5084452;28;20071;-84
2020/12/11 06:15:35;;;;;;;1999.90;999.90;;;0.90;99.90;;;;;;5094142;28;20130;-84
2020/12/11 06:18:07;;;;;;;1999.90;999.90;;;0.90;99.90;;;;;;5090472;28;20054;-84
2020/12/11 06:20:35;;;;;;;1999.90;999.90;;;0.90;99.90;;;;;;5093460;28;20453;-84
2020/12/11 06:23:22;;;;;;;1999.90;999.90;;;1.00;99.90;;;;;;5094196;28;20044;-83
2020/12/11 06:25:52;;;;;;;1999.90;999.90;;;1.00;99.90;;;;;;5093994;28;20122;-84
2020/12/11 06:28:39;;;;;;;1999.90;999.90;;;1.00;99.90;;;;;;5089028;28;20139;-84
2020/12/11 06:31:09;;;;;;;1999.90;999.90;;;1.10;99.90;;;;;;5083775;28;20048;-84
2020/12/11 06:33:38;;;;;;;1999.90;999.90;;;1.00;99.90;;;;;;5093924;28;20054;-84
2020/12/11 06:36:06;;;;;;;1999.90;999.90;;;1.10;99.90;;;;;;5093428;28;20059;-84
2020/12/11 06:38:44;;;;;;;1999.90;999.90;;;1.10;99.90;;;;;;5094019;28;20131;-84
2020/12/11 06:41:11;;;;;;;1999.90;999.90;;;1.20;99.90;;;;;;5079177;28;20075;-84
2020/12/11 06:43:40;;;;;;;1999.90;999.90;;;1.20;99.90;;;;;;5093053;28;20056;-84
2020/12/11 06:46:13;;;;;;;1999.90;999.90;;;1.20;99.90;;;;;;5092849;28;20052;-84
2020/12/11 06:49:05;;;;;;;1999.90;999.90;;;1.20;99.90;;;;;;5093315;28;20409;-84
2020/12/11 06:51:33;;;;;;;1999.90;999.90;;;1.20;99.90;;;;;;5091722;28;20127;-83
2020/12/11 06:54:00;;;;;;;1999.90;999.90;;;1.30;99.90;;;;;;5091491;28;20054;-83
2020/12/11 06:56:41;;;;;;;1999.90;999.90;;;1.30;99.90;;;;;;5092977;28;20486;-84
2020/12/11 06:59:22;;;;;;;1999.90;999.90;;;1.30;99.90;;;;;;5082901;28;20335;-84
2020/12/11 07:01:50;;;;;;;1999.90;999.90;;;1.30;99.90;;;;;;5092002;28;20080;-84
2020/12/11 07:04:18;;;;;;;1999.90;999.90;;;1.40;99.90;;;;;;5093273;28;20067;-84
2020/12/11 07:06:48;;;;;;;1999.90;999.90;;;1.40;99.90;;;;;;5093169;28;20052;-84
2020/12/11 07:09:17;;;;;;;1999.90;999.90;;;1.50;99.90;;;;;;5093010;28;20554;-83
2020/12/11 07:11:44;;;;;;;1999.90;999.90;;;1.50;99.90;;;;;;5093379;28;20071;-84
2020/12/11 07:14:12;;;;;;;1999.90;999.90;;;1.50;99.90;;;;;;5092768;28;20127;-84
2020/12/11 07:16:39;;;;;;;1999.90;999.90;;;1.50;99.90;;;;;;5092100;28;20044;-82
2020/12/11 07:19:08;;;;;;;1999.90;999.90;;;1.50;99.90;;;;;;5092945;28;20078;-84
2020/12/11 07:21:36;;;;;;;1999.90;999.90;;;1.50;99.90;;;;;;5092646;28;20069;-84
2020/12/11 07:24:05;;;;;;;1999.90;999.90;;;1.60;99.90;;;;;;5092237;28;20048;-84
2020/12/11 07:26:32;;;;;;;1999.90;999.90;;;1.60;99.90;;;;;;5092933;28;20402;-85
2020/12/11 07:29:07;;;;;;;1999.90;999.90;;;1.60;99.90;;;;;;5092623;28;20146;-84
2020/12/11 07:31:38;;;;;;;1999.90;999.90;;;1.60;99.90;;;;;;5092394;28;20443;-84
2020/12/11 07:34:12;;;;;;;1999.90;999.90;;;1.60;99.90;;;;;;5092505;28;20562;-84
2020/12/11 07:36:39;;;;;;;1999.90;999.90;;;1.70;99.90;;;;;;5078943;28;20127;-84
2020/12/11 07:39:13;;;;;;;1999.90;999.90;;;1.70;99.90;;;;;;5092202;28;20298;-84
2020/12/11 07:41:42;;;;;;;1999.90;999.90;;;1.70;99.90;;;;;;5092607;28;20575;-87
2020/12/11 07:44:10;;;;;;;1999.90;999.90;;;1.70;99.90;;;;;;5093409;28;20055;-86
2020/12/11 07:46:40;;;;;;;1999.90;999.90;;;1.70;99.90;;;;;;5093016;28;20056;-87
2020/12/11 07:49:07;;;;;;;1999.90;999.90;;;1.70;99.90;;;;;;5092910;28;20505;-87
2020/12/11 07:51:44;;;;;;;1999.90;999.90;;;1.70;99.90;;;;;;5092151;28;20624;-87
2020/12/11 07:54:11;;;;;;;1999.90;999.90;;;1.80;99.90;;;;;;5092578;28;20048;-87
2020/12/11 07:56:37;;;;;;;1999.90;999.90;;;1.80;99.90;;;;;;5093253;28;20056;-87
2020/12/11 07:59:09;;;;;;;1999.90;999.90;;;1.80;99.90;;;;;;5093663;28;20083;-87
2020/12/11 08:01:37;;;;;;;1999.90;999.90;;;1.80;99.90;;;;;;5092753;28;20131;-85
2020/12/11 08:04:04;;;;;;;1999.90;999.90;;;1.80;99.90;;;;;;5092020;28;20102;-87
2020/12/11 08:06:31;;;;;;;1999.90;999.90;;;1.90;99.90;;;;;;5093498;28;20060;-86
2020/12/11 08:08:59;;;;;;;1999.90;999.90;;;1.90;99.90;;;;;;5092080;28;20159;-87
2020/12/11 08:11:26;;;;;;;1999.90;999.90;;;1.90;99.90;;;;;;5093142;28;20132;-87
2020/12/11 08:13:59;;;;;;;1999.90;999.90;;;1.90;99.90;;;;;;5093022;28;20574;-87
2020/12/11 08:16:29;;;;;;;1999.90;999.90;;;1.90;99.90;;;;;;5092752;28;20135;-85
2020/12/11 08:18:57;;;;;;;1999.90;999.90;;;1.90;99.90;;;;;;5092847;28;21194;-88
2020/12/11 08:21:31;;;;;;;1999.90;999.90;;;1.90;99.90;;;;;;5093059;28;20097;-86
2020/12/11 08:23:59;;;;;;;1999.90;999.90;;;2.00;99.90;;;;;;5092547;28;20078;-85
2020/12/11 08:26:36;;;;;;;1999.90;999.90;;;2.00;99.90;;;;;;5092548;28;20328;-88
2020/12/11 08:29:04;;;;;;;1999.90;999.90;;;2.00;99.90;;;;;;5093109;28;20101;-88
2020/12/11 08:31:38;;;;;;;1999.90;999.90;;;2.00;99.90;;;;;;5093399;28;20538;-88
2020/12/11 08:34:07;;;;;;;1999.90;999.90;;;2.00;99.90;;;;;;5097381;28;20048;-88
2020/12/11 08:36:36;;;;;;;1999.90;999.90;;;2.00;99.90;;;;;;5097123;28;20151;-89
2020/12/11 08:39:12;;;;;;;1999.90;999.90;;;2.00;99.90;;;;;;5096931;28;20052;-89
2020/12/11 08:41:43;;;;;;;1999.90;999.90;;;2.10;99.90;;;;;;5096711;28;20090;-88
2020/12/11 08:44:25;;;;;;;1999.90;999.90;;;2.10;99.90;;;;;;5097146;28;20387;-90
2020/12/11 08:47:15;;;;;;;1999.90;999.90;;;2.10;99.90;;;;;;5095693;28;20054;-89
2020/12/11 08:49:45;;;;;;;1999.90;999.90;;;2.10;99.90;;;;;;5095207;28;20052;-89
2020/12/11 08:52:13;;;;;;;1999.90;999.90;;;2.10;99.90;;;;;;5090173;28;20044;-89
2020/12/11 08:54:41;;;;;;;1999.90;999.90;;;2.10;99.90;;;;;;5091351;28;20056;-89
2020/12/11 08:57:08;;;;;;;1999.90;999.90;;;2.20;99.90;;;;;;5097485;28;20101;-89
2020/12/11 08:59:36;;;;;;;1999.90;999.90;;;2.20;99.90;;;;;;5096541;28;20063;-89
2020/12/11 09:02:03;;;;;;;1999.90;999.90;;;2.20;99.90;;;;;;5096067;28;20048;-89
2020/12/11 09:04:31;;;;;;;1999.90;999.90;;;2.20;99.90;;;;;;5096490;28;20188;-90
2020/12/11 09:06:58;;;;;;;1999.90;999.90;;;2.20;99.90;;;;;;5096964;28;20183;-88
2020/12/11 09:09:25;;;;;;;1999.90;999.90;;;2.30;99.90;;;;;;5096481;28;20052;-90
2020/12/11 09:11:53;;;;;;;1999.90;999.90;;;2.20;99.90;;;;;;5096868;28;20106;-90
2020/12/11 09:14:20;;;;;;;1999.90;999.90;;;2.30;99.90;;;;;;5097041;28;20122;-90
2020/12/11 09:16:49;;;;;;;1999.90;999.90;;;2.20;99.90;;;;;;5096288;28;20483;-89
2020/12/11 09:19:17;;;;;;;1999.90;999.90;;;2.30;99.90;;;;;;5094772;28;20071;-89
2020/12/11 09:21:44;;;;;;;1999.90;999.90;;;2.30;99.90;;;;;;5096962;28;20072;-88
2020/12/11 09:24:11;;;;;;;1999.90;999.90;;;2.30;99.90;;;;;;5096375;28;20406;-88
2020/12/11 09:26:38;;;;;;;1999.90;999.90;;;2.40;99.90;;;;;;5096665;28;20070;-88
2020/12/11 09:29:12;;;;;;;1999.90;999.90;;;2.40;99.90;;;;;;5096498;28;20130;-88
2020/12/11 09:31:41;;;;;;;1999.90;999.90;;;2.40;99.90;;;;;;5095834;28;20074;-88
2020/12/11 09:34:09;;;;;;;1999.90;999.90;;;2.40;99.90;;;;;;5095373;28;20401;-88
2020/12/11 09:36:36;;;;;;;1999.90;999.90;;;2.50;99.90;;;;;;5092275;28;20076;-88
2020/12/11 09:39:03;;;;;;;1999.90;999.90;;;2.50;99.90;;;;;;5095549;28;20448;-87
2020/12/11 09:41:37;;;;;;;1999.90;999.90;;;2.50;99.90;;;;;;5093306;28;20132;-88
2020/12/11 09:44:26;;;;;;;1999.90;999.90;;;2.50;99.90;;;;;;5095026;28;20044;-88
2020/12/11 09:47:14;;;;;;;1999.90;999.90;;;2.50;99.90;;;;;;5095248;28;20352;-88
2020/12/11 09:49:51;;;;;;;1999.90;999.90;;;2.50;99.90;;;;;;5094229;28;20063;-89
2020/12/11 09:52:30;;;;;;;1999.90;999.90;;;2.60;99.90;;;;;;5092497;28;20091;-88
2020/12/11 09:54:57;;;;;;;1999.90;999.90;;;2.60;99.90;;;;;;5092789;28;20062;-89
2020/12/11 09:57:25;;;;;;;1999.90;999.90;;;2.60;99.90;;;;;;5092940;28;20055;-87
2020/12/11 09:59:54;;;;;;;1999.90;999.90;;;2.60;99.90;;;;;;5094521;28;20556;-88
2020/12/11 10:02:35;;;;;;;1999.90;999.90;;;2.60;99.90;;;;;;5094398;28;20070;-88
2020/12/11 10:05:03;;;;;;;1999.90;999.90;;;2.60;99.90;;;;;;5092822;28;20699;-88
2020/12/11 10:07:31;;;;;;;1999.90;999.90;;;2.70;99.90;;;;;;5092323;28;20149;-88
2020/12/11 10:09:58;;;;;;;1999.90;999.90;;;2.60;99.90;;;;;;5090853;28;20056;-88
2020/12/11 10:12:27;;;;;;;1999.90;999.90;;;2.70;99.90;;;;;;5093564;28;20321;-88
2020/12/11 10:14:58;;;;;;;1999.90;999.90;;;2.70;99.90;;;;;;5092255;28;20044;-88
2020/12/11 10:17:26;;;;;;;1999.90;999.90;;;2.70;99.90;;;;;;5092313;28;20044;-88
2020/12/11 10:19:53;;;;;;;1999.90;999.90;;;2.80;99.90;;;;;;5094488;28;20222;-88
2020/12/11 10:22:23;;;;;;;1999.90;999.90;;;2.80;99.90;;;;;;5090611;28;20130;-88
2020/12/11 10:24:50;;;;;;;1999.90;999.90;;;2.80;99.90;;;;;;5092864;28;20131;-88
2020/12/11 10:27:17;;;;;;;1999.90;999.90;;;2.90;99.90;;;;;;5092792;28;20054;-88
2020/12/11 10:29:45;;;;;;;1999.90;999.90;;;2.90;99.90;;;;;;5086332;28;20069;-90
2020/12/11 10:32:12;;;;;;;1999.90;999.90;;;2.90;99.90;;;;;;5091041;28;20067;-88
2020/12/11 10:34:40;;;;;;;1999.90;999.90;;;2.90;99.90;;;;;;5089438;28;20048;-87
2020/12/11 10:37:08;;;;;;;1999.90;999.90;;;2.90;99.90;;;;;;5087754;28;20052;-88
2020/12/11 10:39:36;;;;;;;1999.90;999.90;;;3.00;99.90;;;;;;5091524;28;20136;-85
2020/12/11 10:42:05;;;;;;;1999.90;999.90;;;3.00;99.90;;;;;;5091915;28;20048;-86
2020/12/11 10:44:33;;;;;;;1999.90;999.90;;;3.10;99.90;;;;;;5092761;28;20041;-87
2020/12/11 10:47:00;;;;;;;1999.90;999.90;;;3.10;99.90;;;;;;5089703;28;20482;-86
2020/12/11 10:49:28;;;;;;;1999.90;999.90;;;3.10;99.90;;;;;;5091362;28;20131;-87
2020/12/11 10:51:56;;;;;;;1999.90;999.90;;;3.10;99.90;;;;;;5091931;28;20048;-87
2020/12/11 10:54:27;;;;;;;1999.90;999.90;;;3.10;99.90;;;;;;5088142;28;20048;-87
2020/12/11 10:56:54;;;;;;;1999.90;999.90;;;3.10;99.90;;;;;;5090655;28;20080;-87
2020/12/11 10:59:23;;;;;;;1999.90;999.90;;;3.10;99.90;;;;;;5093751;28;20056;-87
2020/12/11 11:01:50;;;;;;;1999.90;999.90;;;3.10;99.90;;;;;;5093321;28;20150;-87
2020/12/11 11:04:18;;;;;;;1999.90;999.90;;;3.20;99.90;;;;;;5093171;28;20116;-87
2020/12/11 11:06:49;;;;;;;1999.90;999.90;;;3.20;99.90;;;;;;5093051;28;20486;-87
2020/12/11 11:09:30;;;;;;;1999.90;999.90;;;3.20;99.90;;;;;;5090350;28;20048;-87
2020/12/11 11:12:04;;;;;;;1999.90;999.90;;;3.20;99.90;;;;;;5087391;28;20079;-86
2020/12/11 11:17:54;;;;;;;1999.90;999.90;;;3.20;99.90;;;;;;5087865;28;20386;-86
2020/12/11 11:23:07;;;;;;;1999.90;999.90;;;3.20;99.90;;;;;;5060952;28;20542;-87
2020/12/11 11:26:03;;;;;;;1999.90;999.90;;;3.30;99.90;;;;;;5091304;28;20135;-88
2020/12/11 11:28:30;;;;;;;1999.90;999.90;;;3.30;99.90;;;;;;5087911;28;20095;-87
2020/12/11 11:30:57;;;;;;;1999.90;999.90;;;3.30;99.90;;;;;;5093309;28;20052;-87
2020/12/11 11:33:24;;;;;;;1999.90;999.90;;;3.30;99.90;;;;;;5093874;28;20090;-85
2020/12/11 11:35:51;;;;;;;1999.90;999.90;;;3.30;99.90;;;;;;5093232;28;20160;-87
2020/12/11 11:38:19;;;;;;;1999.90;999.90;;;3.30;99.90;;;;;;5085011;28;20127;-86
2020/12/11 11:40:49;;;;;;;1999.90;999.90;;;3.30;99.90;;;;;;5093758;28;20150;-86
2020/12/11 11:43:21;;;;;;;1999.90;999.90;;;3.40;99.90;;;;;;5089156;28;20044;-87
2020/12/11 11:45:48;;;;;;;1999.90;999.90;;;3.30;99.90;;;;;;5085938;28;20126;-87
2020/12/11 11:48:19;;;;;;;1999.90;999.90;;;3.30;99.90;;;;;;5088377;28;20098;-88
2020/12/11 11:50:53;;;;;;;1999.90;999.90;;;3.40;99.90;;;;;;5093176;28;20051;-87
2020/12/11 11:53:23;;;;;;;1999.90;999.90;;;3.40;99.90;;;;;;5091116;28;20482;-87
2020/12/11 11:55:53;;;;;;;1999.90;999.90;;;3.40;99.90;;;;;;5085555;28;20060;-87
2020/12/11 11:58:21;;;;;;;1999.90;999.90;;;3.40;99.90;;;;;;5092596;28;20115;-88
2020/12/11 12:00:49;;;;;;;1999.90;999.90;;;3.40;99.90;;;;;;5088473;28;20067;-87
2020/12/11 12:03:16;;;;;;;1999.90;999.90;;;3.40;99.90;;;;;;5091953;28;20458;-88
2020/12/11 12:05:46;;;;;;;1999.90;999.90;;;3.50;99.90;;;;;;5090102;28;20048;-88
2020/12/11 12:08:14;;;;;;;1999.90;999.90;;;3.50;99.90;;;;;;5092352;28;20048;-88
2020/12/11 12:10:41;;;;;;;1999.90;999.90;;;3.50;99.90;;;;;;5093696;28;20047;-88
2020/12/11 12:13:09;;;;;;;1999.90;999.90;;;3.60;99.90;;;;;;5093226;28;20229;-88
2020/12/11 12:15:36;;;;;;;1999.90;999.90;;;3.60;99.90;;;;;;5092991;28;20068;-88
2020/12/11 12:18:05;;;;;;;1999.90;999.90;;;3.60;99.90;;;;;;5092812;28;20487;-88
2020/12/11 12:20:40;;;;;;;1999.90;999.90;;;3.60;99.90;;;;;;5083325;28;20113;-89
2020/12/11 12:28:54;;;;;;;1999.90;999.90;;;3.60;99.90;;;;;;5092845;28;20059;-88
2020/12/11 12:31:25;;;;;;;1999.90;999.90;;;3.60;99.90;;;;;;5089004;28;20148;-88